createdAt,value
2023-01-17T00:00:17.708Z,3.99
2023-01-17T00:03:59.869Z,3.93
2023-01-17T00:07:21.127Z,4.28
2023-01-17T00:10:27.518Z,5.09
2023-01-17T00:13:29.594Z,4.58
2023-01-17T00:16:32.121Z,4.47
2023-01-17T00:19:54.548Z,4.73
2023-01-17T00:23:17.672Z,4.28
2023-01-17T00:26:19.998Z,4.28
2023-01-17T00:29:24.441Z,4.06
2023-01-17T00:32:26.844Z,4.10
2023-01-17T00:35:31.245Z,4.06
2023-01-17T00:38:36.991Z,3.75
2023-01-17T00:41:39.619Z,3.31
2023-01-17T00:45:00.367Z,3.27
2023-01-17T00:48:21.769Z,3.23
2023-01-17T00:51:43.791Z,3.34
2023-01-17T00:55:04.970Z,3.37
2023-01-17T00:58:27.475Z,4.12
2023-01-17T01:01:49.455Z,4.29
2023-01-17T01:05:10.424Z,4.98
2023-01-17T01:08:44.962Z,7.17
2023-01-17T01:12:06.170Z,7.67
2023-01-17T01:15:29.476Z,7.23
2023-01-17T01:18:50.714Z,7.80
2023-01-17T01:22:12.923Z,9.82
2023-01-17T01:25:33.883Z,10.78
2023-01-17T01:28:55.400Z,8.28
2023-01-17T01:32:17.013Z,5.83
2023-01-17T01:35:22.411Z,5.80
2023-01-17T01:38:25.656Z,5.34
2023-01-17T01:41:28.308Z,7.20
2023-01-17T01:44:52.207Z,5.76
2023-01-17T01:48:14.321Z,4.60
2023-01-17T01:51:22.435Z,4.92
2023-01-17T01:54:37.725Z,4.47
2023-01-17T01:57:49.072Z,4.77
2023-01-17T02:00:52.631Z,4.05
2023-01-17T02:03:55.121Z,3.89
2023-01-17T02:07:08.553Z,3.48
2023-01-17T02:10:11.673Z,3.57
2023-01-17T02:13:17.961Z,3.92
2023-01-17T02:16:37.672Z,4.09
2023-01-17T02:20:12.918Z,3.82
2023-01-17T02:23:44.617Z,4.98
2023-01-17T02:27:05.906Z,6.24
2023-01-17T02:30:30.677Z,7.27
2023-01-17T02:33:40.887Z,7.50
2023-01-17T02:37:09.567Z,7.03
2023-01-17T02:40:25.495Z,5.81
2023-01-17T02:43:29.268Z,6.65
2023-01-17T02:46:32.500Z,6.22
2023-01-17T02:49:34.716Z,4.44
2023-01-17T02:52:56.381Z,3.77
2023-01-17T02:56:32.471Z,3.88
2023-01-17T02:59:47.403Z,4.75
2023-01-17T03:03:11.849Z,6.00
2023-01-17T03:06:26.085Z,7.63
2023-01-17T03:09:30.366Z,8.50
2023-01-17T03:12:35.644Z,9.58
2023-01-17T03:15:39.676Z,10.59
2023-01-17T03:18:42.286Z,12.36
2023-01-17T03:21:44.290Z,13.35
2023-01-17T03:24:48.429Z,13.90
2023-01-17T03:27:51.476Z,14.18
2023-01-17T03:30:53.942Z,14.45
2023-01-17T03:33:57.210Z,14.58
2023-01-17T03:36:59.647Z,14.71
2023-01-17T03:40:01.891Z,14.75
2023-01-17T03:43:04.455Z,14.82
2023-01-17T03:46:08.765Z,14.81
2023-01-17T03:49:11.456Z,14.88
2023-01-17T03:52:13.617Z,14.92
2023-01-17T03:55:16.596Z,14.93
2023-01-17T03:58:18.997Z,14.99
2023-01-17T04:01:21.972Z,15.03
2023-01-17T04:04:24.443Z,14.99
2023-01-17T04:07:27.118Z,15.03
2023-01-17T04:10:29.312Z,15.13
2023-01-17T04:13:32.371Z,15.14
2023-01-17T04:16:35.091Z,15.14
2023-01-17T04:19:38.424Z,15.18
2023-01-17T04:22:40.638Z,15.20
2023-01-17T04:25:43.691Z,15.20
2023-01-17T04:28:45.766Z,15.22
2023-01-17T04:31:49.205Z,15.18
2023-01-17T04:34:51.152Z,15.22
2023-01-17T04:37:53.852Z,15.24
2023-01-17T04:40:55.955Z,15.24
2023-01-17T04:43:58.577Z,15.30
2023-01-17T04:47:02.473Z,15.30
2023-01-17T04:50:05.699Z,15.29
2023-01-17T04:53:07.831Z,15.33
2023-01-17T04:56:10.193Z,15.32
2023-01-17T04:59:12.474Z,15.36
2023-01-17T05:02:15.377Z,15.39
2023-01-17T05:05:18.607Z,15.39
2023-01-17T05:08:21.428Z,15.40
2023-01-17T05:11:23.618Z,15.43
2023-01-17T05:14:26.979Z,15.42
2023-01-17T05:17:29.346Z,15.42
2023-01-17T05:20:32.023Z,15.39
2023-01-17T05:23:34.002Z,15.39
2023-01-17T05:26:38.445Z,15.49
2023-01-17T05:29:41.245Z,15.50
2023-01-17T05:32:49.053Z,15.51
2023-01-17T05:35:51.145Z,15.53
2023-01-17T05:38:53.716Z,15.56
2023-01-17T05:41:55.724Z,15.56
2023-01-17T05:44:58.530Z,15.70
2023-01-17T05:48:02.374Z,15.81
2023-01-17T05:51:05.506Z,15.73
2023-01-17T05:54:08.735Z,15.58
2023-01-17T05:57:11.378Z,15.63
2023-01-17T06:00:14.832Z,15.67
2023-01-17T06:03:17.658Z,15.70
2023-01-17T06:06:20.442Z,15.64
2023-01-17T06:09:23.136Z,15.68
2023-01-17T06:12:25.352Z,15.66
2023-01-17T06:15:28.029Z,15.73
2023-01-17T06:18:31.496Z,15.67
2023-01-17T06:21:34.194Z,15.63
2023-01-17T06:24:36.434Z,15.64
2023-01-17T06:27:38.924Z,15.63
2023-01-17T06:30:42.083Z,15.60
2023-01-17T06:33:45.052Z,15.61
2023-01-17T06:36:48.283Z,15.63
2023-01-17T06:39:50.738Z,15.74
2023-01-17T06:42:52.895Z,15.80
2023-01-17T06:45:55.448Z,15.73
2023-01-17T06:48:57.801Z,15.74
2023-01-17T06:52:00.561Z,15.77
2023-01-17T06:55:02.779Z,15.78
2023-01-17T06:58:05.631Z,15.80
2023-01-17T07:01:09.842Z,15.84
2023-01-17T07:04:15.438Z,15.84
2023-01-17T07:07:18.354Z,15.80
2023-01-17T07:10:22.441Z,15.83
2023-01-17T07:13:24.903Z,15.78
2023-01-17T07:16:27.560Z,15.77
2023-01-17T07:19:31.124Z,15.80
2023-01-17T07:22:34.083Z,15.81
2023-01-17T07:25:36.611Z,15.78
2023-01-17T07:28:39.815Z,15.73
2023-01-17T07:31:41.986Z,16.15
2023-01-17T07:34:44.466Z,16.41
2023-01-17T07:37:51.033Z,16.47
2023-01-17T07:40:58.985Z,16.65
2023-01-17T07:44:01.140Z,16.69
2023-01-17T07:47:04.596Z,16.77
2023-01-17T07:50:08.265Z,16.76
2023-01-17T07:53:11.696Z,16.76
2023-01-17T07:56:13.968Z,16.75
2023-01-17T07:59:18.103Z,16.77
2023-01-17T08:02:23.724Z,16.77
2023-01-17T08:05:26.461Z,16.79
2023-01-17T08:08:29.318Z,16.79
2023-01-17T08:11:31.835Z,16.79
2023-01-17T08:14:34.112Z,16.80
2023-01-17T08:17:36.688Z,16.80
2023-01-17T08:20:38.688Z,16.80
2023-01-17T08:23:41.652Z,16.84
2023-01-17T08:26:43.678Z,16.84
2023-01-17T08:29:49.180Z,16.82
2023-01-17T08:32:51.467Z,16.84
2023-01-17T08:35:55.180Z,16.84
2023-01-17T08:38:57.659Z,16.84
2023-01-17T08:42:00.306Z,16.84
2023-01-17T08:45:03.127Z,16.86
2023-01-17T08:48:05.941Z,16.86
2023-01-17T08:51:08.187Z,16.84
2023-01-17T08:54:13.148Z,16.83
2023-01-17T08:57:15.380Z,16.87
2023-01-17T09:00:18.746Z,16.93
2023-01-17T09:03:20.894Z,17.06
2023-01-17T09:06:23.278Z,16.99
2023-01-17T09:09:26.757Z,17.04
2023-01-17T09:12:33.409Z,17.00
2023-01-17T09:15:35.712Z,17.02
2023-01-17T09:18:38.418Z,17.04
2023-01-17T09:21:40.604Z,16.96
2023-01-17T09:24:43.284Z,16.97
2023-01-17T09:27:47.094Z,16.94
2023-01-17T09:30:50.319Z,16.93
2023-01-17T09:33:54.676Z,16.97
2023-01-17T09:36:57.146Z,16.94
2023-01-17T09:39:59.173Z,16.94
2023-01-17T09:43:05.800Z,16.93
2023-01-17T09:46:22.838Z,16.94
2023-01-17T09:49:38.498Z,16.93
2023-01-17T09:52:41.251Z,16.93
2023-01-17T09:55:54.884Z,16.94
2023-01-17T09:59:32.845Z,17.04
2023-01-17T10:03:01.085Z,17.02
2023-01-17T10:06:31.137Z,17.07
2023-01-17T10:09:57.230Z,17.07
2023-01-17T10:13:03.162Z,17.06
2023-01-17T10:16:36.094Z,17.03
2023-01-17T10:19:52.029Z,17.03
2023-01-17T10:23:23.267Z,17.03
2023-01-17T10:26:26.683Z,17.10
2023-01-17T10:29:34.623Z,17.20
2023-01-17T10:32:46.790Z,17.17
2023-01-17T10:36:25.066Z,17.21
2023-01-17T10:39:31.139Z,17.23
2023-01-17T10:42:43.091Z,17.34
2023-01-17T10:45:54.842Z,17.37
2023-01-17T10:49:01.581Z,17.35
2023-01-17T10:56:16.033Z,17.35
2023-01-17T10:59:30.137Z,17.34
2023-01-17T11:02:40.221Z,17.35
2023-01-17T11:05:44.675Z,17.34
2023-01-17T11:08:59.187Z,17.33
2023-01-17T11:12:01.945Z,17.34
2023-01-17T11:15:10.844Z,17.38
2023-01-17T11:18:20.071Z,17.40
2023-01-17T11:21:25.590Z,17.33
2023-01-17T11:24:39.752Z,17.27
2023-01-17T11:27:42.419Z,17.33
2023-01-17T11:30:56.709Z,17.33
2023-01-17T11:34:08.129Z,17.34
2023-01-17T11:37:18.365Z,17.38
2023-01-17T11:40:23.828Z,17.35
2023-01-17T11:43:28.243Z,17.38
2023-01-17T11:46:30.831Z,17.51
2023-01-17T11:49:32.950Z,17.55
2023-01-17T11:52:39.456Z,17.58
2023-01-17T11:55:53.547Z,17.63
2023-01-17T11:59:40.861Z,17.64
2023-01-17T12:02:57.972Z,17.84
2023-01-17T12:06:57.626Z,17.92
2023-01-17T12:10:35.923Z,18.04
2023-01-17T12:14:09.615Z,18.16
2023-01-17T12:17:44.822Z,18.18
2023-01-17T12:21:05.043Z,18.22
2023-01-17T12:24:15.971Z,18.24
2023-01-17T12:27:29.418Z,18.30
2023-01-17T12:31:02.186Z,18.32
2023-01-17T12:34:26.923Z,18.35
2023-01-17T12:37:38.465Z,18.37
2023-01-17T12:40:47.333Z,18.29
2023-01-17T12:43:54.467Z,18.39
2023-01-17T12:47:06.208Z,18.36
2023-01-17T12:50:27.076Z,18.39
2023-01-17T12:53:52.193Z,18.49
2023-01-17T12:57:04.861Z,18.10
2023-01-17T13:00:23.252Z,18.57
2023-01-17T13:03:41.909Z,18.76
2023-01-17T13:07:00.239Z,18.50
2023-01-17T13:10:18.760Z,18.37
2023-01-17T13:13:24.557Z,18.25
2023-01-17T13:16:36.605Z,18.21
2023-01-17T13:20:01.858Z,18.16
2023-01-17T13:23:18.811Z,18.15
2023-01-17T13:26:57.688Z,18.15
2023-01-17T13:30:28.897Z,18.09
2023-01-17T13:34:15.977Z,18.15
2023-01-17T13:37:33.939Z,18.36
2023-01-17T13:40:42.308Z,18.06
2023-01-17T13:44:05.685Z,18.10
2023-01-17T13:47:10.647Z,18.49
2023-01-17T13:50:38.754Z,18.53
2023-01-17T13:53:41.635Z,18.59
2023-01-17T13:56:44.813Z,18.69
2023-01-17T13:59:47.634Z,18.73
2023-01-17T14:02:51.757Z,18.71
2023-01-17T14:05:57.334Z,18.74
2023-01-17T14:09:08.270Z,18.69
2023-01-17T14:12:10.741Z,18.49
2023-01-17T14:15:27.555Z,18.42
2023-01-17T14:18:36.926Z,18.32
2023-01-17T14:21:39.190Z,18.10
2023-01-17T14:25:12.323Z,17.81
2023-01-17T14:28:32.061Z,16.82
2023-01-17T14:31:34.619Z,16.72
2023-01-17T14:34:37.068Z,17.24
2023-01-17T14:37:50.920Z,17.73
2023-01-17T14:41:00.330Z,17.95
2023-01-17T14:44:04.183Z,18.01
2023-01-17T14:47:06.232Z,18.08
2023-01-17T14:50:29.997Z,18.06
2023-01-17T14:53:34.658Z,18.04
2023-01-17T14:56:37.829Z,18.09
2023-01-17T14:59:40.388Z,18.06
2023-01-17T15:02:47.022Z,18.01
2023-01-17T15:05:52.762Z,17.96
2023-01-17T15:08:55.186Z,17.99
2023-01-17T15:11:58.545Z,17.95
2023-01-17T15:15:01.814Z,17.91
2023-01-17T15:18:22.057Z,18.08
2023-01-17T15:21:28.016Z,18.13
2023-01-17T15:24:35.955Z,18.22
2023-01-17T15:27:39.194Z,18.32
2023-01-17T15:31:07.474Z,18.42
2023-01-17T15:34:38.688Z,18.42
2023-01-17T15:37:42.667Z,18.50
2023-01-17T15:40:48.114Z,18.53
2023-01-17T15:43:52.254Z,18.57
2023-01-17T15:46:55.585Z,18.53
2023-01-17T15:50:01.085Z,18.59
2023-01-17T15:53:05.542Z,18.53
2023-01-17T15:56:26.861Z,18.63
2023-01-17T15:59:43.234Z,18.70
2023-01-17T16:02:56.492Z,18.67
2023-01-17T16:06:01.224Z,18.69
2023-01-17T16:09:18.008Z,18.64
2023-01-17T16:12:22.541Z,18.63
2023-01-17T16:15:27.226Z,18.60
2023-01-17T16:18:30.323Z,18.64
2023-01-17T16:21:32.981Z,18.64
2023-01-17T16:24:35.457Z,18.64
2023-01-17T16:27:38.326Z,18.53
2023-01-17T16:30:40.673Z,18.53
2023-01-17T16:33:44.646Z,18.60
2023-01-17T16:36:48.420Z,18.55
2023-01-17T16:39:58.203Z,18.46
2023-01-17T16:43:03.345Z,18.36
2023-01-17T16:46:07.174Z,18.33
2023-01-17T16:49:11.803Z,18.29
2023-01-17T16:52:21.310Z,18.26
2023-01-17T16:55:25.140Z,18.18
2023-01-17T16:58:27.905Z,18.16
2023-01-17T17:01:31.337Z,18.15
2023-01-17T17:04:35.194Z,18.12
2023-01-17T17:07:51.803Z,18.10
2023-01-17T17:11:06.784Z,18.08
2023-01-17T17:14:09.816Z,17.89
2023-01-17T17:17:19.356Z,17.84
2023-01-17T17:20:25.297Z,17.78
2023-01-17T17:23:29.966Z,17.70
2023-01-17T17:26:36.191Z,17.65
2023-01-17T17:29:43.713Z,17.78
2023-01-17T17:32:49.678Z,17.79
2023-01-17T17:35:53.260Z,17.82
2023-01-17T17:38:59.850Z,17.85
2023-01-17T17:42:03.452Z,17.81
2023-01-17T17:45:06.199Z,17.84
2023-01-17T17:48:10.379Z,17.84
2023-01-17T17:51:30.280Z,17.82
2023-01-17T17:54:36.453Z,17.82
2023-01-17T17:57:38.805Z,17.81
2023-01-17T18:00:42.500Z,17.78
2023-01-17T18:03:45.288Z,17.79
2023-01-17T18:06:51.457Z,17.78
2023-01-17T18:09:54.463Z,17.77
2023-01-17T18:12:57.306Z,17.73
2023-01-17T18:16:11.518Z,17.71
2023-01-17T18:19:23.588Z,17.64
2023-01-17T18:22:25.734Z,17.67
2023-01-17T18:25:28.239Z,17.63
2023-01-17T18:28:30.852Z,17.65
2023-01-17T18:31:34.747Z,17.64
2023-01-17T18:34:42.011Z,17.67
2023-01-17T18:37:45.990Z,17.65
2023-01-17T18:40:48.258Z,17.64
2023-01-17T18:43:51.616Z,17.63
2023-01-17T18:46:54.908Z,17.64
2023-01-17T18:49:58.752Z,17.64
2023-01-17T18:53:00.752Z,17.68
2023-01-17T18:56:07.510Z,17.70
2023-01-17T18:59:13.837Z,17.67
2023-01-17T19:02:18.409Z,17.63
2023-01-17T19:05:21.865Z,17.54
2023-01-17T19:08:25.123Z,17.50
2023-01-17T19:11:28.568Z,17.50
2023-01-17T19:14:31.080Z,17.48
2023-01-17T19:17:34.148Z,17.47
2023-01-17T19:20:36.884Z,17.44
2023-01-17T19:23:41.531Z,17.45
2023-01-17T19:26:44.905Z,17.45
2023-01-17T19:29:47.879Z,17.45
2023-01-17T19:32:51.733Z,17.41
2023-01-17T19:35:59.537Z,17.40
2023-01-17T19:39:06.110Z,17.37
2023-01-17T19:42:26.512Z,17.37
2023-01-17T19:45:29.701Z,17.37
2023-01-17T19:48:36.875Z,17.31
2023-01-17T19:51:46.404Z,17.30
2023-01-17T19:54:49.654Z,17.33
2023-01-17T19:57:52.381Z,17.34
2023-01-17T20:01:07.328Z,17.30
2023-01-17T20:04:19.776Z,17.26
2023-01-17T20:07:25.045Z,17.24
2023-01-17T20:10:30.000Z,17.21
2023-01-17T20:13:34.852Z,17.21
2023-01-17T20:16:37.929Z,17.24
2023-01-17T20:19:41.491Z,17.30
2023-01-17T20:22:45.733Z,17.28
2023-01-17T20:25:59.954Z,17.38
2023-01-17T20:29:07.636Z,17.43
2023-01-17T20:32:10.821Z,17.54
2023-01-17T20:35:14.232Z,17.63
2023-01-17T20:38:17.816Z,17.67
2023-01-17T20:41:23.296Z,17.65
2023-01-17T20:44:25.598Z,17.67
2023-01-17T20:47:30.143Z,17.65
2023-01-17T20:50:39.209Z,17.77
2023-01-17T20:53:45.315Z,17.81
2023-01-17T20:56:49.216Z,17.88
2023-01-17T20:59:55.368Z,17.84
2023-01-17T21:02:57.444Z,17.77
2023-01-17T21:06:05.180Z,17.68
2023-01-17T21:09:10.866Z,17.61
2023-01-17T21:12:17.926Z,17.60
2023-01-17T21:15:21.486Z,17.61
2023-01-17T21:18:25.672Z,17.57
2023-01-17T21:21:30.115Z,17.57
2023-01-17T21:24:34.329Z,17.50
2023-01-17T21:27:41.849Z,17.47
2023-01-17T21:30:51.321Z,17.45
2023-01-17T21:33:59.988Z,17.48
2023-01-17T21:37:03.942Z,17.51
2023-01-17T21:40:06.448Z,17.65
2023-01-17T21:43:09.870Z,17.77
2023-01-17T21:46:12.042Z,17.75
2023-01-17T21:49:15.141Z,17.74
2023-01-17T21:52:17.304Z,17.70
2023-01-17T21:55:40.480Z,17.81
2023-01-17T21:58:45.891Z,17.92
2023-01-17T22:01:49.105Z,17.96
2023-01-17T22:04:51.669Z,18.01
2023-01-17T22:08:12.595Z,18.01
2023-01-17T22:11:18.840Z,18.08
2023-01-17T22:14:21.909Z,18.12
2023-01-17T22:17:28.418Z,18.12
2023-01-17T22:20:34.810Z,18.12
2023-01-17T22:23:37.278Z,18.13
2023-01-17T22:26:41.884Z,18.18
2023-01-17T22:29:45.006Z,18.16
2023-01-17T22:32:47.916Z,18.19
2023-01-17T22:35:59.636Z,18.19
2023-01-17T22:39:02.404Z,18.22
2023-01-17T22:42:05.553Z,18.28
2023-01-17T22:45:09.121Z,18.30
2023-01-17T22:48:11.227Z,18.37
2023-01-17T22:51:18.097Z,18.37
2023-01-17T22:54:20.494Z,18.39
2023-01-17T22:57:23.435Z,18.40
2023-01-17T23:00:25.584Z,18.40
2023-01-17T23:03:27.986Z,18.40
2023-01-17T23:06:35.702Z,18.43
2023-01-17T23:09:40.699Z,18.45
2023-01-17T23:12:43.918Z,18.46
2023-01-17T23:16:05.043Z,18.46
2023-01-17T23:19:25.501Z,18.42
2023-01-17T23:22:30.240Z,18.46
2023-01-17T23:25:33.176Z,18.52
2023-01-17T23:28:35.711Z,18.50
2023-01-17T23:31:38.049Z,18.47
2023-01-17T23:34:41.725Z,18.50
2023-01-17T23:38:03.710Z,18.53
2023-01-17T23:41:27.475Z,18.53
2023-01-17T23:44:32.786Z,18.56
2023-01-17T23:47:35.690Z,18.61
2023-01-17T23:50:39.885Z,18.63
2023-01-17T23:53:42.914Z,18.60
2023-01-17T23:56:47.682Z,18.59
2023-01-17T23:59:50.033Z,18.59
